This is the latest recevied weather packets stored in our database for station/object KF7BKV-1. If no packets are shown the sender has not sent any weather packets the latest 1 day(s).
| Time | Temp. | Humidity | Pressure | Rain* | Wind** | Luminosity | Snow |
|---|---|---|---|---|---|---|---|
| 1777981983 | 14.44° C | 45% | 1009.6 hPa | 0 mm | 3.13 m/s, 100° | - | - |
| 1777981923 | 14.44° C | 45% | 1009.6 hPa | 0 mm | 3.13 m/s, 100° | - | - |
| 1777981863 | 14.44° C | 45% | 1009.6 hPa | 0 mm | 3.13 m/s, 100° | - | - |
| 1777981803 | 14.44° C | 45% | 1009.3 hPa | 0 mm | 4.92 m/s, 88° | - | - |
| 1777981743 | 14.44° C | 45% | 1009.3 hPa | 0 mm | 4.92 m/s, 88° | - | - |
| 1777981683 | 14.44° C | 45% | 1009.3 hPa | 0 mm | 4.92 m/s, 88° | - | - |
| 1777981623 | 14.44° C | 45% | 1009.3 hPa | 0 mm | 4.92 m/s, 88° | - | - |
| 1777981563 | 14.44° C | 45% | 1009.3 hPa | 0 mm | 4.92 m/s, 88° | - | - |
| 1777981503 | 14.44° C | 45% | 1009.3 hPa | 0 mm | 2.24 m/s, 148° | - | - |
| 1777981443 | 14.44° C | 45% | 1009.3 hPa | 0 mm | 2.24 m/s, 148° | - | - |
| 1777981383 | 14.44° C | 45% | 1009.3 hPa | 0 mm | 2.24 m/s, 148° | - | - |
| 1777981323 | 14.44° C | 45% | 1009.3 hPa | 0 mm | 2.24 m/s, 148° | - | - |
| 1777981263 | 14.44° C | 45% | 1009.3 hPa | 0 mm | 2.24 m/s, 148° | - | - |
| 1777981203 | 14.44° C | 44% | 1009.1 hPa | 0 mm | 2.68 m/s, 92° | - | - |
| 1777981143 | 14.44° C | 44% | 1009.1 hPa | 0 mm | 2.68 m/s, 92° | - | - |
| 1777981083 | 14.44° C | 44% | 1009.1 hPa | 0 mm | 2.68 m/s, 92° | - | - |
| 1777981023 | 14.44° C | 44% | 1009.1 hPa | 0 mm | 2.68 m/s, 92° | - | - |
| 1777980963 | 14.44° C | 44% | 1009.1 hPa | 0 mm | 2.68 m/s, 92° | - | - |
| 1777980904 | 15° C | 44% | 1009.3 hPa | 0 mm | 3.58 m/s, 98° | - | - |
| 1777980843 | 15° C | 44% | 1009.3 hPa | 0 mm | 3.58 m/s, 98° | - | - |
| 1777980783 | 15° C | 44% | 1009.3 hPa | 0 mm | 3.58 m/s, 98° | - | - |
| 1777980723 | 15° C | 44% | 1009.3 hPa | 0 mm | 3.58 m/s, 98° | - | - |
| 1777980663 | 15° C | 44% | 1009.3 hPa | 0 mm | 3.58 m/s, 98° | - | - |
| 1777980603 | 15° C | 43% | 1009.1 hPa | 0 mm | 4.47 m/s, 111° | - | - |
| 1777980543 | 15° C | 43% | 1009.1 hPa | 0 mm | 4.47 m/s, 111° | - | - |
* Rain latest hour (hover to see other rain measurements)
** Current wind speed in m/s (hover to see current wind gust speed)